sensor_id;sensor_type;location;lat;lon;timestamp;P1;durP1;ratioP1;P2;durP2;ratioP2
1879;SDS011;49285;49.002;8.390;2023-05-10T00:00:04;1.70;;;1.30;;
1879;SDS011;49285;49.002;8.390;2023-05-10T00:02:30;2.37;;;1.40;;
1879;SDS011;49285;49.002;8.390;2023-05-10T00:04:56;2.10;;;1.50;;
1879;SDS011;49285;49.002;8.390;2023-05-10T00:07:21;1.90;;;1.57;;
1879;SDS011;49285;49.002;8.390;2023-05-10T00:09:47;2.23;;;1.40;;
1879;SDS011;49285;49.002;8.390;2023-05-10T00:12:12;4.33;;;1.80;;
1879;SDS011;49285;49.002;8.390;2023-05-10T00:14:38;2.67;;;1.63;;
1879;SDS011;49285;49.002;8.390;2023-05-10T00:17:04;1.80;;;1.30;;
1879;SDS011;49285;49.002;8.390;2023-05-10T00:19:29;2.33;;;1.40;;
1879;SDS011;49285;49.002;8.390;2023-05-10T00:21:55;5.33;;;1.50;;
1879;SDS011;49285;49.002;8.390;2023-05-10T00:24:21;2.50;;;1.57;;
1879;SDS011;49285;49.002;8.390;2023-05-10T00:26:46;2.00;;;1.30;;
1879;SDS011;49285;49.002;8.390;2023-05-10T00:29:12;2.00;;;1.50;;
1879;SDS011;49285;49.002;8.390;2023-05-10T00:31:37;2.20;;;1.47;;
1879;SDS011;49285;49.002;8.390;2023-05-10T00:34:03;2.43;;;1.57;;
1879;SDS011;49285;49.002;8.390;2023-05-10T00:36:28;2.67;;;1.60;;
1879;SDS011;49285;49.002;8.390;2023-05-10T00:38:54;2.20;;;1.50;;
1879;SDS011;49285;49.002;8.390;2023-05-10T00:41:19;1.60;;;1.30;;
1879;SDS011;49285;49.002;8.390;2023-05-10T00:43:46;1.90;;;1.57;;
1879;SDS011;49285;49.002;8.390;2023-05-10T00:46:11;7.40;;;1.80;;
1879;SDS011;49285;49.002;8.390;2023-05-10T00:48:39;3.80;;;1.90;;
1879;SDS011;49285;49.002;8.390;2023-05-10T00:51:04;2.63;;;1.80;;
1879;SDS011;49285;49.002;8.390;2023-05-10T00:53:31;2.40;;;1.70;;
1879;SDS011;49285;49.002;8.390;2023-05-10T00:55:57;2.93;;;1.60;;
1879;SDS011;49285;49.002;8.390;2023-05-10T00:58:24;2.67;;;1.60;;
1879;SDS011;49285;49.002;8.390;2023-05-10T01:00:53;2.20;;;1.63;;
1879;SDS011;49285;49.002;8.390;2023-05-10T01:03:20;1.80;;;1.50;;
1879;SDS011;49285;49.002;8.390;2023-05-10T01:05:46;2.53;;;1.73;;
1879;SDS011;49285;49.002;8.390;2023-05-10T01:08:11;2.50;;;1.80;;
1879;SDS011;49285;49.002;8.390;2023-05-10T01:10:37;7.13;;;2.23;;
1879;SDS011;49285;49.002;8.390;2023-05-10T01:13:03;2.30;;;1.80;;
1879;SDS011;49285;49.002;8.390;2023-05-10T01:15:28;2.33;;;1.50;;
1879;SDS011;49285;49.002;8.390;2023-05-10T01:17:55;2.20;;;1.63;;
1879;SDS011;49285;49.002;8.390;2023-05-10T01:20:21;2.30;;;1.90;;
1879;SDS011;49285;49.002;8.390;2023-05-10T01:34:19;2.33;;;2.00;;
1879;SDS011;49285;49.002;8.390;2023-05-10T01:36:51;2.20;;;1.80;;
1879;SDS011;49285;49.002;8.390;2023-05-10T01:39:24;2.20;;;1.90;;
1879;SDS011;49285;49.002;8.390;2023-05-10T01:44:40;5.67;;;2.37;;
1879;SDS011;49285;49.002;8.390;2023-05-10T01:47:15;2.40;;;1.90;;
1879;SDS011;49285;49.002;8.390;2023-05-10T01:49:50;2.50;;;2.13;;
1879;SDS011;49285;49.002;8.390;2023-05-10T01:52:20;4.10;;;2.87;;
1879;SDS011;49285;49.002;8.390;2023-05-10T01:54:53;4.47;;;3.33;;
1879;SDS011;49285;49.002;8.390;2023-05-10T01:57:25;2.87;;;2.40;;
1879;SDS011;49285;49.002;8.390;2023-05-10T01:59:55;3.00;;;2.40;;
1879;SDS011;49285;49.002;8.390;2023-05-10T02:02:22;2.90;;;2.40;;
1879;SDS011;49285;49.002;8.390;2023-05-10T02:04:49;3.70;;;2.50;;
1879;SDS011;49285;49.002;8.390;2023-05-10T02:07:17;4.00;;;2.70;;
1879;SDS011;49285;49.002;8.390;2023-05-10T02:09:44;3.63;;;3.27;;
1879;SDS011;49285;49.002;8.390;2023-05-10T02:12:13;3.80;;;3.40;;
1879;SDS011;49285;49.002;8.390;2023-05-10T02:14:40;4.43;;;3.20;;
1879;SDS011;49285;49.002;8.390;2023-05-10T02:17:07;2.87;;;2.53;;
1879;SDS011;49285;49.002;8.390;2023-05-10T02:19:34;3.70;;;3.00;;
1879;SDS011;49285;49.002;8.390;2023-05-10T02:22:02;3.43;;;3.10;;
1879;SDS011;49285;49.002;8.390;2023-05-10T02:24:29;7.30;;;3.27;;
1879;SDS011;49285;49.002;8.390;2023-05-10T02:26:55;4.80;;;3.03;;
1879;SDS011;49285;49.002;8.390;2023-05-10T02:29:22;6.53;;;3.47;;
1879;SDS011;49285;49.002;8.390;2023-05-10T02:31:51;3.30;;;3.00;;
1879;SDS011;49285;49.002;8.390;2023-05-10T02:34:19;4.03;;;3.00;;
1879;SDS011;49285;49.002;8.390;2023-05-10T02:36:46;4.10;;;2.97;;
1879;SDS011;49285;49.002;8.390;2023-05-10T02:39:13;3.60;;;3.20;;
1879;SDS011;49285;49.002;8.390;2023-05-10T02:41:40;9.00;;;4.10;;
1879;SDS011;49285;49.002;8.390;2023-05-10T02:44:07;4.70;;;3.20;;
1879;SDS011;49285;49.002;8.390;2023-05-10T02:46:34;6.50;;;3.67;;
1879;SDS011;49285;49.002;8.390;2023-05-10T02:49:02;4.70;;;3.70;;
1879;SDS011;49285;49.002;8.390;2023-05-10T02:51:30;6.00;;;4.13;;
1879;SDS011;49285;49.002;8.390;2023-05-10T02:54:00;4.43;;;4.03;;
1879;SDS011;49285;49.002;8.390;2023-05-10T02:56:33;4.33;;;3.63;;
1879;SDS011;49285;49.002;8.390;2023-05-10T02:59:00;4.10;;;3.70;;
1879;SDS011;49285;49.002;8.390;2023-05-10T03:01:26;4.20;;;3.57;;
1879;SDS011;49285;49.002;8.390;2023-05-10T03:03:52;3.67;;;3.33;;
1879;SDS011;49285;49.002;8.390;2023-05-10T03:06:18;8.30;;;3.80;;
1879;SDS011;49285;49.002;8.390;2023-05-10T03:08:44;4.20;;;3.80;;
1879;SDS011;49285;49.002;8.390;2023-05-10T03:11:16;5.00;;;3.60;;
1879;SDS011;49285;49.002;8.390;2023-05-10T03:16:36;3.70;;;3.30;;
1879;SDS011;49285;49.002;8.390;2023-05-10T03:19:17;4.93;;;3.50;;
1879;SDS011;49285;49.002;8.390;2023-05-10T03:21:50;4.27;;;3.83;;
1879;SDS011;49285;49.002;8.390;2023-05-10T03:24:18;3.90;;;3.50;;
1879;SDS011;49285;49.002;8.390;2023-05-10T03:26:46;4.43;;;3.97;;
1879;SDS011;49285;49.002;8.390;2023-05-10T03:29:13;4.07;;;3.77;;
1879;SDS011;49285;49.002;8.390;2023-05-10T03:31:40;3.83;;;3.40;;
1879;SDS011;49285;49.002;8.390;2023-05-10T03:34:06;4.50;;;3.43;;
1879;SDS011;49285;49.002;8.390;2023-05-10T03:36:32;3.77;;;3.40;;
1879;SDS011;49285;49.002;8.390;2023-05-10T03:38:58;5.97;;;3.93;;
1879;SDS011;49285;49.002;8.390;2023-05-10T03:41:23;4.40;;;4.00;;
1879;SDS011;49285;49.002;8.390;2023-05-10T03:43:50;3.93;;;3.40;;
1879;SDS011;49285;49.002;8.390;2023-05-10T03:46:17;4.50;;;3.90;;
1879;SDS011;49285;49.002;8.390;2023-05-10T03:48:42;4.60;;;3.43;;
1879;SDS011;49285;49.002;8.390;2023-05-10T03:51:08;4.07;;;3.63;;
1879;SDS011;49285;49.002;8.390;2023-05-10T03:53:33;3.50;;;3.13;;
1879;SDS011;49285;49.002;8.390;2023-05-10T03:55:59;4.00;;;3.10;;
1879;SDS011;49285;49.002;8.390;2023-05-10T03:58:25;9.33;;;3.57;;
1879;SDS011;49285;49.002;8.390;2023-05-10T04:00:51;3.87;;;3.40;;
1879;SDS011;49285;49.002;8.390;2023-05-10T04:03:16;3.40;;;3.10;;
1879;SDS011;49285;49.002;8.390;2023-05-10T04:05:42;3.00;;;2.70;;
1879;SDS011;49285;49.002;8.390;2023-05-10T04:08:08;4.63;;;3.70;;
1879;SDS011;49285;49.002;8.390;2023-05-10T04:10:33;3.03;;;2.70;;
1879;SDS011;49285;49.002;8.390;2023-05-10T04:12:59;4.43;;;3.23;;
1879;SDS011;49285;49.002;8.390;2023-05-10T04:15:24;10.83;;;3.20;;
1879;SDS011;49285;49.002;8.390;2023-05-10T04:17:50;3.47;;;3.17;;
1879;SDS011;49285;49.002;8.390;2023-05-10T04:20:16;3.97;;;3.00;;
1879;SDS011;49285;49.002;8.390;2023-05-10T04:22:41;3.80;;;3.30;;
1879;SDS011;49285;49.002;8.390;2023-05-10T04:25:07;3.30;;;3.00;;
1879;SDS011;49285;49.002;8.390;2023-05-10T04:27:33;5.33;;;3.17;;
1879;SDS011;49285;49.002;8.390;2023-05-10T04:29:59;3.47;;;2.97;;
1879;SDS011;49285;49.002;8.390;2023-05-10T04:32:24;5.07;;;3.23;;
1879;SDS011;49285;49.002;8.390;2023-05-10T04:34:50;3.40;;;2.90;;
1879;SDS011;49285;49.002;8.390;2023-05-10T04:37:17;3.50;;;3.20;;
1879;SDS011;49285;49.002;8.390;2023-05-10T04:39:42;4.20;;;3.43;;
1879;SDS011;49285;49.002;8.390;2023-05-10T04:42:08;4.50;;;3.07;;
1879;SDS011;49285;49.002;8.390;2023-05-10T04:44:34;4.93;;;3.47;;
1879;SDS011;49285;49.002;8.390;2023-05-10T04:47:00;3.33;;;3.03;;
1879;SDS011;49285;49.002;8.390;2023-05-10T04:49:27;3.87;;;3.47;;
1879;SDS011;49285;49.002;8.390;2023-05-10T04:51:53;5.53;;;3.93;;
1879;SDS011;49285;49.002;8.390;2023-05-10T04:54:18;4.87;;;4.30;;
1879;SDS011;49285;49.002;8.390;2023-05-10T04:56:44;6.33;;;3.10;;
1879;SDS011;49285;49.002;8.390;2023-05-10T04:59:09;3.37;;;3.00;;
1879;SDS011;49285;49.002;8.390;2023-05-10T05:01:35;4.53;;;3.53;;
1879;SDS011;49285;49.002;8.390;2023-05-10T05:04:01;5.23;;;3.60;;
1879;SDS011;49285;49.002;8.390;2023-05-10T05:06:26;4.77;;;3.20;;
1879;SDS011;49285;49.002;8.390;2023-05-10T05:08:52;4.90;;;4.20;;
1879;SDS011;49285;49.002;8.390;2023-05-10T05:11:18;5.70;;;3.90;;
1879;SDS011;49285;49.002;8.390;2023-05-10T05:13:43;6.97;;;3.83;;
1879;SDS011;49285;49.002;8.390;2023-05-10T05:16:09;5.53;;;4.33;;
1879;SDS011;49285;49.002;8.390;2023-05-10T05:18:35;3.80;;;3.40;;
1879;SDS011;49285;49.002;8.390;2023-05-10T05:21:01;4.20;;;3.80;;
1879;SDS011;49285;49.002;8.390;2023-05-10T05:23:26;4.33;;;3.60;;
1879;SDS011;49285;49.002;8.390;2023-05-10T05:25:52;4.70;;;4.07;;
1879;SDS011;49285;49.002;8.390;2023-05-10T05:28:21;3.87;;;3.40;;
1879;SDS011;49285;49.002;8.390;2023-05-10T05:30:47;4.40;;;3.47;;
1879;SDS011;49285;49.002;8.390;2023-05-10T05:33:13;5.10;;;4.00;;
1879;SDS011;49285;49.002;8.390;2023-05-10T05:35:40;4.83;;;3.73;;
1879;SDS011;49285;49.002;8.390;2023-05-10T05:38:06;4.27;;;3.83;;
1879;SDS011;49285;49.002;8.390;2023-05-10T05:40:31;4.50;;;3.27;;
1879;SDS011;49285;49.002;8.390;2023-05-10T05:42:57;5.47;;;3.70;;
1879;SDS011;49285;49.002;8.390;2023-05-10T05:45:22;3.87;;;3.57;;
1879;SDS011;49285;49.002;8.390;2023-05-10T05:47:48;7.50;;;4.07;;
1879;SDS011;49285;49.002;8.390;2023-05-10T05:50:13;5.20;;;3.50;;
1879;SDS011;49285;49.002;8.390;2023-05-10T05:52:39;5.40;;;3.77;;
1879;SDS011;49285;49.002;8.390;2023-05-10T05:55:05;4.83;;;3.90;;
1879;SDS011;49285;49.002;8.390;2023-05-10T05:57:30;3.50;;;3.17;;
1879;SDS011;49285;49.002;8.390;2023-05-10T05:59:56;3.80;;;3.40;;
1879;SDS011;49285;49.002;8.390;2023-05-10T06:02:22;3.20;;;2.70;;
1879;SDS011;49285;49.002;8.390;2023-05-10T06:04:47;2.97;;;2.60;;
1879;SDS011;49285;49.002;8.390;2023-05-10T06:07:13;3.00;;;2.47;;
1879;SDS011;49285;49.002;8.390;2023-05-10T06:09:38;3.20;;;2.63;;
1879;SDS011;49285;49.002;8.390;2023-05-10T06:12:04;4.43;;;2.63;;
1879;SDS011;49285;49.002;8.390;2023-05-10T06:14:30;2.87;;;2.57;;
1879;SDS011;49285;49.002;8.390;2023-05-10T06:16:55;4.20;;;2.73;;
1879;SDS011;49285;49.002;8.390;2023-05-10T06:19:21;3.30;;;2.60;;
1879;SDS011;49285;49.002;8.390;2023-05-10T06:21:46;4.10;;;2.70;;
1879;SDS011;49285;49.002;8.390;2023-05-10T06:24:12;3.63;;;2.80;;
1879;SDS011;49285;49.002;8.390;2023-05-10T06:26:37;9.23;;;2.80;;
1879;SDS011;49285;49.002;8.390;2023-05-10T06:29:03;3.97;;;2.70;;
1879;SDS011;49285;49.002;8.390;2023-05-10T06:31:29;3.77;;;2.80;;
1879;SDS011;49285;49.002;8.390;2023-05-10T06:33:54;6.17;;;3.20;;
1879;SDS011;49285;49.002;8.390;2023-05-10T06:36:20;7.10;;;3.40;;
1879;SDS011;49285;49.002;8.390;2023-05-10T06:38:45;3.20;;;2.57;;
1879;SDS011;49285;49.002;8.390;2023-05-10T06:41:11;4.10;;;2.63;;
1879;SDS011;49285;49.002;8.390;2023-05-10T06:43:37;3.73;;;2.33;;
1879;SDS011;49285;49.002;8.390;2023-05-10T06:46:05;3.73;;;2.47;;
1879;SDS011;49285;49.002;8.390;2023-05-10T06:48:31;4.10;;;2.57;;
1879;SDS011;49285;49.002;8.390;2023-05-10T06:50:57;3.00;;;2.40;;
1879;SDS011;49285;49.002;8.390;2023-05-10T06:53:23;3.33;;;2.37;;
1879;SDS011;49285;49.002;8.390;2023-05-10T06:55:49;3.30;;;2.37;;
1879;SDS011;49285;49.002;8.390;2023-05-10T06:58:15;2.70;;;2.23;;
1879;SDS011;49285;49.002;8.390;2023-05-10T07:00:40;2.80;;;2.37;;
1879;SDS011;49285;49.002;8.390;2023-05-10T07:03:09;4.00;;;2.40;;
1879;SDS011;49285;49.002;8.390;2023-05-10T07:05:35;4.10;;;3.20;;
1879;SDS011;49285;49.002;8.390;2023-05-10T07:08:01;3.87;;;2.80;;
1879;SDS011;49285;49.002;8.390;2023-05-10T07:10:26;3.73;;;2.50;;
1879;SDS011;49285;49.002;8.390;2023-05-10T07:12:52;6.30;;;2.43;;
1879;SDS011;49285;49.002;8.390;2023-05-10T07:15:18;3.10;;;2.57;;
1879;SDS011;49285;49.002;8.390;2023-05-10T07:17:43;3.60;;;2.67;;
1879;SDS011;49285;49.002;8.390;2023-05-10T07:20:09;3.07;;;2.43;;
1879;SDS011;49285;49.002;8.390;2023-05-10T07:22:35;4.23;;;2.20;;
1879;SDS011;49285;49.002;8.390;2023-05-10T07:25:01;3.10;;;2.10;;
1879;SDS011;49285;49.002;8.390;2023-05-10T07:27:27;9.10;;;2.17;;
1879;SDS011;49285;49.002;8.390;2023-05-10T07:29:52;2.40;;;1.93;;
1879;SDS011;49285;49.002;8.390;2023-05-10T07:32:19;2.67;;;1.60;;
1879;SDS011;49285;49.002;8.390;2023-05-10T07:34:45;4.43;;;2.00;;
1879;SDS011;49285;49.002;8.390;2023-05-10T07:37:10;3.50;;;1.70;;
1879;SDS011;49285;49.002;8.390;2023-05-10T07:39:36;5.73;;;1.90;;
1879;SDS011;49285;49.002;8.390;2023-05-10T07:42:02;3.10;;;1.70;;
1879;SDS011;49285;49.002;8.390;2023-05-10T07:44:28;2.40;;;1.80;;
1879;SDS011;49285;49.002;8.390;2023-05-10T07:46:53;2.40;;;1.90;;
1879;SDS011;49285;49.002;8.390;2023-05-10T07:49:19;2.10;;;1.67;;
1879;SDS011;49285;49.002;8.390;2023-05-10T07:51:44;3.43;;;1.80;;
1879;SDS011;49285;49.002;8.390;2023-05-10T07:54:10;3.30;;;1.60;;
1879;SDS011;49285;49.002;8.390;2023-05-10T07:56:36;2.73;;;1.90;;
1879;SDS011;49285;49.002;8.390;2023-05-10T07:59:02;3.50;;;1.73;;
1879;SDS011;49285;49.002;8.390;2023-05-10T08:01:32;2.63;;;1.70;;
1879;SDS011;49285;49.002;8.390;2023-05-10T08:04:00;2.60;;;2.07;;
1879;SDS011;49285;49.002;8.390;2023-05-10T08:06:25;3.63;;;2.10;;
1879;SDS011;49285;49.002;8.390;2023-05-10T08:08:53;2.50;;;1.80;;
1879;SDS011;49285;49.002;8.390;2023-05-10T08:11:19;2.83;;;1.70;;
1879;SDS011;49285;49.002;8.390;2023-05-10T08:13:45;2.60;;;1.87;;
1879;SDS011;49285;49.002;8.390;2023-05-10T08:16:11;3.10;;;2.00;;
1879;SDS011;49285;49.002;8.390;2023-05-10T08:18:37;3.40;;;2.00;;
1879;SDS011;49285;49.002;8.390;2023-05-10T08:21:03;2.27;;;1.53;;
1879;SDS011;49285;49.002;8.390;2023-05-10T08:23:29;2.40;;;2.20;;
1879;SDS011;49285;49.002;8.390;2023-05-10T08:25:55;6.13;;;2.37;;
1879;SDS011;49285;49.002;8.390;2023-05-10T08:28:20;1.80;;;1.37;;
1879;SDS011;49285;49.002;8.390;2023-05-10T08:30:46;2.40;;;1.80;;
1879;SDS011;49285;49.002;8.390;2023-05-10T08:33:11;2.67;;;1.63;;
1879;SDS011;49285;49.002;8.390;2023-05-10T08:35:37;2.40;;;1.60;;
1879;SDS011;49285;49.002;8.390;2023-05-10T08:38:02;2.33;;;1.60;;
1879;SDS011;49285;49.002;8.390;2023-05-10T08:40:28;6.03;;;1.60;;
1879;SDS011;49285;49.002;8.390;2023-05-10T08:42:58;3.10;;;1.70;;
1879;SDS011;49285;49.002;8.390;2023-05-10T08:45:32;3.67;;;2.00;;
1879;SDS011;49285;49.002;8.390;2023-05-10T08:48:02;3.70;;;1.60;;
1879;SDS011;49285;49.002;8.390;2023-05-10T08:50:29;2.00;;;1.60;;
1879;SDS011;49285;49.002;8.390;2023-05-10T08:52:57;3.63;;;1.43;;
1879;SDS011;49285;49.002;8.390;2023-05-10T08:55:25;2.13;;;1.77;;
1879;SDS011;49285;49.002;8.390;2023-05-10T08:57:51;1.80;;;1.43;;
1879;SDS011;49285;49.002;8.390;2023-05-10T09:00:17;2.27;;;1.73;;
1879;SDS011;49285;49.002;8.390;2023-05-10T09:02:43;3.60;;;1.70;;
1879;SDS011;49285;49.002;8.390;2023-05-10T09:05:10;3.30;;;1.90;;
1879;SDS011;49285;49.002;8.390;2023-05-10T09:07:37;2.10;;;1.80;;
1879;SDS011;49285;49.002;8.390;2023-05-10T09:10:03;4.10;;;2.20;;
1879;SDS011;49285;49.002;8.390;2023-05-10T09:12:29;2.97;;;1.80;;
1879;SDS011;49285;49.002;8.390;2023-05-10T09:14:55;2.10;;;1.80;;
1879;SDS011;49285;49.002;8.390;2023-05-10T09:17:23;1.93;;;1.50;;
1879;SDS011;49285;49.002;8.390;2023-05-10T09:19:50;6.13;;;1.80;;
1879;SDS011;49285;49.002;8.390;2023-05-10T09:22:21;2.83;;;1.70;;
1879;SDS011;49285;49.002;8.390;2023-05-10T09:24:47;2.07;;;1.70;;
1879;SDS011;49285;49.002;8.390;2023-05-10T09:27:27;4.60;;;1.87;;
1879;SDS011;49285;49.002;8.390;2023-05-10T09:29:53;2.33;;;1.73;;
1879;SDS011;49285;49.002;8.390;2023-05-10T09:32:20;2.73;;;1.60;;
1879;SDS011;49285;49.002;8.390;2023-05-10T09:34:45;5.77;;;1.90;;
1879;SDS011;49285;49.002;8.390;2023-05-10T09:37:14;2.20;;;1.80;;
1879;SDS011;49285;49.002;8.390;2023-05-10T09:39:40;2.57;;;1.80;;
1879;SDS011;49285;49.002;8.390;2023-05-10T09:42:07;3.57;;;1.70;;
1879;SDS011;49285;49.002;8.390;2023-05-10T09:44:34;2.37;;;1.60;;
1879;SDS011;49285;49.002;8.390;2023-05-10T09:47:00;4.57;;;1.77;;
1879;SDS011;49285;49.002;8.390;2023-05-10T09:49:27;2.27;;;2.03;;
1879;SDS011;49285;49.002;8.390;2023-05-10T09:51:59;6.07;;;1.70;;
1879;SDS011;49285;49.002;8.390;2023-05-10T09:54:27;2.37;;;1.77;;
1879;SDS011;49285;49.002;8.390;2023-05-10T09:56:53;2.33;;;1.70;;
1879;SDS011;49285;49.002;8.390;2023-05-10T09:59:18;2.20;;;1.80;;
1879;SDS011;49285;49.002;8.390;2023-05-10T10:01:49;11.90;;;2.07;;
1879;SDS011;49285;49.002;8.390;2023-05-10T10:04:15;1.90;;;1.60;;
1879;SDS011;49285;49.002;8.390;2023-05-10T10:06:41;2.30;;;1.70;;
1879;SDS011;49285;49.002;8.390;2023-05-10T10:09:07;5.23;;;2.40;;
1879;SDS011;49285;49.002;8.390;2023-05-10T10:11:37;2.73;;;1.87;;
1879;SDS011;49285;49.002;8.390;2023-05-10T10:14:03;3.33;;;1.93;;
1879;SDS011;49285;49.002;8.390;2023-05-10T10:16:30;3.17;;;1.97;;
1879;SDS011;49285;49.002;8.390;2023-05-10T10:18:56;2.90;;;2.17;;
1879;SDS011;49285;49.002;8.390;2023-05-10T10:21:22;3.10;;;2.10;;
1879;SDS011;49285;49.002;8.390;2023-05-10T10:23:48;6.53;;;2.40;;
1879;SDS011;49285;49.002;8.390;2023-05-10T10:26:15;2.10;;;1.90;;
1879;SDS011;49285;49.002;8.390;2023-05-10T10:28:50;3.47;;;2.43;;
1879;SDS011;49285;49.002;8.390;2023-05-10T10:31:47;2.50;;;2.17;;
1879;SDS011;49285;49.002;8.390;2023-05-10T10:36:53;3.50;;;2.13;;
1879;SDS011;49285;49.002;8.390;2023-05-10T10:39:19;2.30;;;2.00;;
1879;SDS011;49285;49.002;8.390;2023-05-10T10:41:52;3.27;;;2.70;;
1879;SDS011;49285;49.002;8.390;2023-05-10T10:47:04;5.10;;;2.80;;
1879;SDS011;49285;49.002;8.390;2023-05-10T10:49:49;2.90;;;2.60;;
1879;SDS011;49285;49.002;8.390;2023-05-10T10:52:26;5.83;;;3.47;;
1879;SDS011;49285;49.002;8.390;2023-05-10T10:55:14;6.60;;;3.30;;
1879;SDS011;49285;49.002;8.390;2023-05-10T10:57:57;5.10;;;3.03;;
1879;SDS011;49285;49.002;8.390;2023-05-10T11:00:29;3.97;;;2.93;;
1879;SDS011;49285;49.002;8.390;2023-05-10T11:15:55;3.50;;;2.57;;
1879;SDS011;49285;49.002;8.390;2023-05-10T11:18:26;6.20;;;3.43;;
1879;SDS011;49285;49.002;8.390;2023-05-10T11:20:58;3.77;;;2.77;;
1879;SDS011;49285;49.002;8.390;2023-05-10T11:25:58;4.07;;;2.63;;
1879;SDS011;49285;49.002;8.390;2023-05-10T11:28:26;3.30;;;3.00;;
1879;SDS011;49285;49.002;8.390;2023-05-10T11:30:52;3.23;;;2.37;;
1879;SDS011;49285;49.002;8.390;2023-05-10T11:33:18;3.10;;;2.30;;
1879;SDS011;49285;49.002;8.390;2023-05-10T11:35:44;2.30;;;1.93;;
1879;SDS011;49285;49.002;8.390;2023-05-10T11:38:11;3.43;;;2.10;;
1879;SDS011;49285;49.002;8.390;2023-05-10T11:40:38;2.30;;;2.07;;
1879;SDS011;49285;49.002;8.390;2023-05-10T11:43:04;3.00;;;2.30;;
1879;SDS011;49285;49.002;8.390;2023-05-10T11:45:34;3.30;;;2.33;;
1879;SDS011;49285;49.002;8.390;2023-05-10T11:48:00;6.13;;;2.20;;
1879;SDS011;49285;49.002;8.390;2023-05-10T11:50:26;3.93;;;2.27;;
1879;SDS011;49285;49.002;8.390;2023-05-10T11:52:53;3.43;;;1.80;;
1879;SDS011;49285;49.002;8.390;2023-05-10T11:55:19;3.67;;;2.40;;
1879;SDS011;49285;49.002;8.390;2023-05-10T11:57:45;5.63;;;2.07;;
1879;SDS011;49285;49.002;8.390;2023-05-10T12:00:14;2.10;;;1.87;;
1879;SDS011;49285;49.002;8.390;2023-05-10T12:02:40;2.70;;;2.00;;
1879;SDS011;49285;49.002;8.390;2023-05-10T12:05:06;2.93;;;2.13;;
1879;SDS011;49285;49.002;8.390;2023-05-10T12:07:32;3.07;;;1.90;;
1879;SDS011;49285;49.002;8.390;2023-05-10T12:12:39;3.30;;;2.20;;
1879;SDS011;49285;49.002;8.390;2023-05-10T12:15:19;2.97;;;2.27;;
1879;SDS011;49285;49.002;8.390;2023-05-10T12:17:47;2.60;;;2.20;;
1879;SDS011;49285;49.002;8.390;2023-05-10T12:20:22;3.30;;;2.10;;
1879;SDS011;49285;49.002;8.390;2023-05-10T12:25:18;4.73;;;2.00;;
1879;SDS011;49285;49.002;8.390;2023-05-10T12:27:48;3.53;;;2.23;;
1879;SDS011;49285;49.002;8.390;2023-05-10T12:30:19;2.50;;;2.30;;
1879;SDS011;49285;49.002;8.390;2023-05-10T12:32:48;4.23;;;2.47;;
1879;SDS011;49285;49.002;8.390;2023-05-10T12:35:14;3.17;;;2.50;;
1879;SDS011;49285;49.002;8.390;2023-05-10T12:37:41;3.57;;;2.20;;
1879;SDS011;49285;49.002;8.390;2023-05-10T12:40:08;2.50;;;2.10;;
1879;SDS011;49285;49.002;8.390;2023-05-10T12:42:36;3.20;;;2.40;;
1879;SDS011;49285;49.002;8.390;2023-05-10T12:45:03;3.20;;;2.20;;
1879;SDS011;49285;49.002;8.390;2023-05-10T12:47:30;2.40;;;2.13;;
1879;SDS011;49285;49.002;8.390;2023-05-10T12:49:56;2.70;;;2.20;;
1879;SDS011;49285;49.002;8.390;2023-05-10T12:52:22;3.10;;;2.50;;
1879;SDS011;49285;49.002;8.390;2023-05-10T12:54:47;5.07;;;2.93;;
1879;SDS011;49285;49.002;8.390;2023-05-10T12:57:14;2.63;;;2.43;;
1879;SDS011;49285;49.002;8.390;2023-05-10T12:59:39;2.70;;;2.50;;
1879;SDS011;49285;49.002;8.390;2023-05-10T13:02:05;2.70;;;2.17;;
1879;SDS011;49285;49.002;8.390;2023-05-10T13:04:31;3.10;;;2.30;;
1879;SDS011;49285;49.002;8.390;2023-05-10T13:06:57;2.10;;;1.90;;
1879;SDS011;49285;49.002;8.390;2023-05-10T13:09:24;2.40;;;2.00;;
1879;SDS011;49285;49.002;8.390;2023-05-10T13:11:51;3.37;;;2.20;;
1879;SDS011;49285;49.002;8.390;2023-05-10T13:14:18;2.50;;;2.23;;
1879;SDS011;49285;49.002;8.390;2023-05-10T13:16:45;2.83;;;2.47;;
1879;SDS011;49285;49.002;8.390;2023-05-10T13:19:11;3.40;;;2.10;;
1879;SDS011;49285;49.002;8.390;2023-05-10T13:21:37;4.10;;;2.50;;
1879;SDS011;49285;49.002;8.390;2023-05-10T13:24:03;2.50;;;2.27;;
1879;SDS011;49285;49.002;8.390;2023-05-10T13:26:28;3.00;;;1.90;;
1879;SDS011;49285;49.002;8.390;2023-05-10T13:28:54;3.40;;;2.23;;
1879;SDS011;49285;49.002;8.390;2023-05-10T13:31:20;2.33;;;2.10;;
1879;SDS011;49285;49.002;8.390;2023-05-10T13:33:46;3.03;;;2.00;;
1879;SDS011;49285;49.002;8.390;2023-05-10T13:36:12;2.10;;;1.90;;
1879;SDS011;49285;49.002;8.390;2023-05-10T13:38:37;2.30;;;1.80;;
1879;SDS011;49285;49.002;8.390;2023-05-10T13:41:03;3.00;;;2.20;;
1879;SDS011;49285;49.002;8.390;2023-05-10T13:43:29;6.07;;;2.37;;
1879;SDS011;49285;49.002;8.390;2023-05-10T13:45:54;5.80;;;2.23;;
1879;SDS011;49285;49.002;8.390;2023-05-10T13:48:20;2.80;;;2.20;;
1879;SDS011;49285;49.002;8.390;2023-05-10T13:50:46;2.17;;;1.97;;
1879;SDS011;49285;49.002;8.390;2023-05-10T13:53:12;2.30;;;1.93;;
1879;SDS011;49285;49.002;8.390;2023-05-10T13:55:37;2.10;;;1.90;;
1879;SDS011;49285;49.002;8.390;2023-05-10T13:58:03;2.20;;;1.87;;
1879;SDS011;49285;49.002;8.390;2023-05-10T14:00:29;2.70;;;2.10;;
1879;SDS011;49285;49.002;8.390;2023-05-10T14:02:55;2.43;;;2.00;;
1879;SDS011;49285;49.002;8.390;2023-05-10T14:05:21;2.60;;;2.00;;
1879;SDS011;49285;49.002;8.390;2023-05-10T14:07:46;4.03;;;2.10;;
1879;SDS011;49285;49.002;8.390;2023-05-10T14:10:12;3.43;;;1.97;;
1879;SDS011;49285;49.002;8.390;2023-05-10T14:12:37;3.53;;;2.17;;
1879;SDS011;49285;49.002;8.390;2023-05-10T14:15:03;6.13;;;2.23;;
1879;SDS011;49285;49.002;8.390;2023-05-10T14:17:31;2.07;;;1.83;;
1879;SDS011;49285;49.002;8.390;2023-05-10T14:19:57;3.10;;;2.40;;
1879;SDS011;49285;49.002;8.390;2023-05-10T14:22:22;3.33;;;2.10;;
1879;SDS011;49285;49.002;8.390;2023-05-10T14:24:48;3.20;;;2.00;;
1879;SDS011;49285;49.002;8.390;2023-05-10T14:27:14;2.20;;;2.00;;
1879;SDS011;49285;49.002;8.390;2023-05-10T14:29:40;2.43;;;1.80;;
1879;SDS011;49285;49.002;8.390;2023-05-10T14:32:05;2.03;;;1.70;;
1879;SDS011;49285;49.002;8.390;2023-05-10T14:34:31;2.20;;;1.83;;
1879;SDS011;49285;49.002;8.390;2023-05-10T14:36:57;2.10;;;1.73;;
1879;SDS011;49285;49.002;8.390;2023-05-10T14:39:23;2.10;;;1.90;;
1879;SDS011;49285;49.002;8.390;2023-05-10T14:41:48;2.90;;;2.00;;
1879;SDS011;49285;49.002;8.390;2023-05-10T14:44:16;2.27;;;1.80;;
1879;SDS011;49285;49.002;8.390;2023-05-10T14:46:41;3.17;;;1.80;;
1879;SDS011;49285;49.002;8.390;2023-05-10T14:49:07;2.40;;;1.90;;
1879;SDS011;49285;49.002;8.390;2023-05-10T14:51:33;3.10;;;1.87;;
1879;SDS011;49285;49.002;8.390;2023-05-10T14:53:58;3.30;;;1.83;;
1879;SDS011;49285;49.002;8.390;2023-05-10T14:56:24;2.00;;;1.80;;
1879;SDS011;49285;49.002;8.390;2023-05-10T14:58:51;2.20;;;2.00;;
1879;SDS011;49285;49.002;8.390;2023-05-10T15:01:16;3.50;;;2.17;;
1879;SDS011;49285;49.002;8.390;2023-05-10T15:03:42;2.50;;;2.20;;
1879;SDS011;49285;49.002;8.390;2023-05-10T15:06:08;3.03;;;2.00;;
1879;SDS011;49285;49.002;8.390;2023-05-10T15:08:33;2.40;;;1.90;;
1879;SDS011;49285;49.002;8.390;2023-05-10T15:10:59;3.30;;;2.40;;
1879;SDS011;49285;49.002;8.390;2023-05-10T15:13:25;2.30;;;2.10;;
1879;SDS011;49285;49.002;8.390;2023-05-10T15:15:50;2.50;;;2.00;;
1879;SDS011;49285;49.002;8.390;2023-05-10T15:18:16;3.17;;;2.20;;
1879;SDS011;49285;49.002;8.390;2023-05-10T15:20:41;2.10;;;1.90;;
1879;SDS011;49285;49.002;8.390;2023-05-10T15:23:07;3.17;;;2.00;;
1879;SDS011;49285;49.002;8.390;2023-05-10T15:25:33;3.20;;;1.97;;
1879;SDS011;49285;49.002;8.390;2023-05-10T15:28:02;3.00;;;1.80;;
1879;SDS011;49285;49.002;8.390;2023-05-10T15:30:28;3.70;;;2.00;;
1879;SDS011;49285;49.002;8.390;2023-05-10T15:32:54;6.70;;;2.17;;
1879;SDS011;49285;49.002;8.390;2023-05-10T15:35:20;4.10;;;1.87;;
1879;SDS011;49285;49.002;8.390;2023-05-10T15:37:46;3.13;;;1.70;;
1879;SDS011;49285;49.002;8.390;2023-05-10T15:40:12;2.63;;;1.97;;